Time;durP1;ratioP1;P1;durP2;ratioP2;P2;SDS_P1;SDS_P2;PMS_P1;PMS_P2;Temp;Humidity;BMP_temperature;BMP_pressure;BME280_temperature;BME280_humidity;BME280_pressure;Samples;Min_cycle;Max_cycle;Signal;HPM_P1;HPM_P2
2021/12/30 00:01:11;;;;;;;8.07;5.70;;;;;;;4.87;75.38;94825.25;5014477;28;20045;-78
2021/12/30 00:03:37;;;;;;;7.20;5.20;;;;;;;4.81;76.00;94824.88;5026234;28;20073;-78
2021/12/30 00:06:03;;;;;;;10.48;5.10;;;;;;;4.87;75.85;94825.25;5023119;28;20049;-78
2021/12/30 00:08:28;;;;;;;6.22;4.80;;;;;;;4.80;76.44;94823.19;5026273;28;20036;-78
2021/12/30 00:10:55;;;;;;;7.20;5.13;;;;;;;4.74;75.79;94820.34;4998871;28;20037;-79
2021/12/30 00:13:20;;;;;;;8.50;4.93;;;;;;;4.82;75.11;94823.88;5018909;28;20021;-80
2021/12/30 00:15:46;;;;;;;7.28;4.47;;;;;;;4.93;74.44;94820.09;5015982;28;20481;-79
2021/12/30 00:18:12;;;;;;;9.02;4.65;;;;;;;4.97;74.66;94828.59;5011865;28;20032;-78
2021/12/30 00:20:37;;;;;;;6.93;4.25;;;;;;;5.05;74.46;94820.69;5028765;28;20033;-80
2021/12/30 00:23:04;;;;;;;7.50;4.00;;;;;;;5.10;73.24;94830.84;5028410;28;20479;-80
2021/12/30 00:25:37;;;;;;;7.65;4.22;;;;;;;5.13;72.71;94835.00;5029378;28;20056;-79
2021/12/30 00:28:03;;;;;;;;;;;;;;;5.10;73.07;94835.31;5027924;28;20053;-79
2021/12/30 00:30:29;;;;;;;7.03;3.63;;;;;;;5.09;73.38;94834.50;5029198;28;19987;-79
2021/12/30 00:32:54;;;;;;;7.22;4.05;;;;;;;5.01;73.56;94840.59;5027315;28;20044;-79
2021/12/30 00:35:19;;;;;;;5.88;4.10;;;;;;;4.87;74.11;94843.84;5029380;28;20029;-79
2021/12/30 00:37:45;;;;;;;4.82;3.60;;;;;;;4.81;74.60;94843.47;5027107;28;20040;-80
2021/12/30 00:40:11;;;;;;;4.75;3.78;;;;;;;4.92;74.92;94834.41;5028497;28;20029;-79
2021/12/30 00:42:36;;;;;;;5.45;3.38;;;;;;;4.76;74.37;94847.56;5029107;28;20109;-79
2021/12/30 00:45:02;;;;;;;4.78;3.33;;;;;;;4.75;74.76;94849.41;5027624;28;20107;-79
2021/12/30 00:47:27;;;;;;;5.47;3.70;;;;;;;4.81;74.92;94847.94;5028902;28;20479;-80
2021/12/30 00:49:53;;;;;;;4.72;3.38;;;;;;;4.87;74.14;94842.00;5026550;28;20128;-80
2021/12/30 00:52:18;;;;;;;5.90;3.50;;;;;;;4.84;74.24;94846.81;5028497;28;20029;-80
2021/12/30 00:54:45;;;;;;;4.90;3.17;;;;;;;4.92;73.74;94846.84;5009134;28;20048;-78
2021/12/30 00:57:10;;;;;;;4.80;2.90;;;;;;;5.00;73.94;94846.91;5028242;28;20029;-80
2021/12/30 00:59:36;;;;;;;4.10;2.80;;;;;;;5.04;72.70;94853.59;5027938;28;20031;-80
2021/12/30 01:02:01;;;;;;;4.13;2.65;;;;;;;5.00;73.01;94857.53;5026987;28;20037;-79
2021/12/30 01:04:27;;;;;;;4.20;2.72;;;;;;;4.91;73.15;94864.63;5028528;28;20037;-79
2021/12/30 01:06:52;;;;;;;4.45;2.70;;;;;;;4.89;73.97;94855.13;5026522;28;20030;-79
2021/12/30 01:09:18;;;;;;;6.10;3.10;;;;;;;4.81;73.80;94866.53;5010781;28;20028;-80
2021/12/30 01:11:43;;;;;;;5.28;2.85;;;;;;;4.87;73.84;94867.75;5026308;28;20040;-79
2021/12/30 01:14:17;;;;;;;5.85;3.05;;;;;;;4.82;74.99;94870.88;5029047;28;20021;-76
2021/12/30 01:16:45;;;;;;;4.68;3.20;;;;;;;4.85;74.71;94869.72;5027730;28;20028;-79
2021/12/30 01:19:56;;;;;;;5.15;2.85;;;;;;;4.88;73.88;94872.91;5010225;28;20029;-80
2021/12/30 01:21:56;;;;;;;4.47;3.35;;;;;;;4.85;74.12;94869.72;5014061;28;20520;-80
2021/12/30 01:24:22;;;;;;;4.43;3.30;;;;;;;4.67;74.59;94865.28;5026405;28;20052;-80
2021/12/30 01:26:48;;;;;;;5.68;3.30;;;;;;;4.66;74.82;94871.59;5027990;28;20025;-80
2021/12/30 01:29:13;;;;;;;4.72;3.20;;;;;;;4.70;75.21;94871.13;5008465;28;20033;-80
2021/12/30 01:31:38;;;;;;;4.38;3.10;;;;;;;4.88;73.88;94866.75;5027776;28;20021;-80
2021/12/30 01:34:04;;;;;;;5.55;2.90;;;;;;;4.86;73.49;94874.88;5027218;28;20037;-80
2021/12/30 01:36:29;;;;;;;4.57;3.10;;;;;;;4.90;73.58;94870.09;5027130;28;20026;-80
2021/12/30 01:38:55;;;;;;;3.35;2.75;;;;;;;4.89;73.80;94876.38;5027493;28;20029;-79
2021/12/30 01:41:21;;;;;;;4.35;2.72;;;;;;;4.72;74.49;94884.25;5025753;28;20079;-80
2021/12/30 01:43:47;;;;;;;5.72;3.33;;;;;;;4.64;75.46;94877.03;5010320;28;20022;-80
2021/12/30 01:46:13;;;;;;;3.95;2.90;;;;;;;4.55;75.63;94884.13;5025598;28;20022;-80
2021/12/30 01:48:38;;;;;;;3.22;2.78;;;;;;;4.49;75.42;94876.75;5010017;28;20101;-80
2021/12/30 01:51:04;;;;;;;4.38;2.90;;;;;;;4.61;75.63;94889.81;5007985;28;20033;-80
2021/12/30 01:53:30;;;;;;;4.20;3.05;;;;;;;4.58;75.12;94890.94;5027240;28;20029;-79
2021/12/30 01:55:55;;;;;;;4.30;3.13;;;;;;;4.63;75.32;94887.81;5026799;28;20021;-79
2021/12/30 01:58:21;;;;;;;4.22;2.88;;;;;;;4.61;74.91;94884.50;4992108;28;20026;-79
2021/12/30 02:00:47;;;;;;;4.32;2.95;;;;;;;4.62;75.16;94883.50;5027331;28;20087;-78
2021/12/30 02:03:13;;;;;;;4.53;3.28;;;;;;;4.66;75.57;94884.88;5025429;28;20500;-79
2021/12/30 02:05:39;;;;;;;4.70;2.90;;;;;;;4.76;74.52;94880.28;5027767;28;20033;-79
2021/12/30 02:08:05;;;;;;;4.97;2.92;;;;;;;4.78;75.23;94886.28;5025449;28;20031;-79
2021/12/30 02:10:31;;;;;;;3.50;2.65;;;;;;;4.79;74.65;94879.97;5027455;28;20045;-79
2021/12/30 02:12:56;;;;;;;3.88;2.78;;;;;;;4.81;74.68;94887.78;5026484;28;20031;-79
2021/12/30 02:15:22;;;;;;;4.88;2.63;;;;;;;4.81;74.42;94896.59;5008650;28;20021;-79
2021/12/30 02:17:51;;;;;;;4.78;3.17;;;;;;;4.68;74.83;94896.16;5027087;28;20018;-79
2021/12/30 02:20:54;;;;;;;4.18;2.90;;;;;;;4.77;74.89;94891.75;5025487;28;20471;-78
2021/12/30 02:23:33;;;;;;;4.28;2.67;;;;;;;4.86;74.00;94895.28;5027027;28;20029;-79
2021/12/30 02:26:07;;;;;;;3.58;2.55;;;;;;;4.91;73.64;94898.34;5026160;28;20060;-80
2021/12/30 02:28:34;;;;;;;3.97;2.70;;;;;;;4.86;74.45;94897.97;5025793;28;20065;-79
2021/12/30 02:31:00;;;;;;;3.00;2.30;;;;;;;4.86;73.99;94898.81;5027096;28;20041;-79
2021/12/30 02:33:26;;;;;;;5.47;2.55;;;;;;;4.91;73.59;94904.50;5007374;28;20503;-80
2021/12/30 02:35:52;;;;;;;3.20;2.42;;;;;;;4.82;74.68;94900.09;5027234;28;20026;-79
2021/12/30 02:38:17;;;;;;;5.18;2.50;;;;;;;4.80;74.53;94894.91;5025038;28;20044;-78
2021/12/30 02:40:50;;;;;;;3.45;2.53;;;;;;;4.67;74.56;94905.13;5009216;28;20032;-80
2021/12/30 02:43:18;;;;;;;3.65;2.15;;;;;;;4.73;75.00;94909.81;5025778;28;20485;-80
2021/12/30 02:45:44;;;;;;;3.33;2.50;;;;;;;4.84;74.10;94915.91;5008497;28;20064;-79
2021/12/30 02:48:17;;;;;;;3.67;2.65;;;;;;;4.72;74.76;94913.47;5026325;28;20025;-80
2021/12/30 02:50:43;;;;;;;3.38;2.40;;;;;;;4.77;74.48;94915.66;5025194;28;20507;-79
2021/12/30 02:53:08;;;;;;;2.95;2.28;;;;;;;4.70;74.89;94921.59;5026027;28;20025;-78
2021/12/30 02:55:34;;;;;;;4.75;2.65;;;;;;;4.69;75.20;94919.09;5007761;28;20025;-80
2021/12/30 02:57:59;;;;;;;15.02;4.88;;;;;;;4.75;74.07;94922.94;5026817;28;20020;-81
2021/12/30 03:00:25;;;;;;;14.02;4.78;;;;;;;4.75;74.74;94930.94;5026456;28;20033;-79
2021/12/30 03:02:51;;;;;;;16.02;5.85;;;;;;;4.81;73.87;94928.50;5011012;28;20045;-79
2021/12/30 03:05:18;;;;;;;12.48;4.70;;;;;;;4.85;74.12;94928.19;5030409;28;20102;-79
2021/12/30 03:07:43;;;;;;;12.02;5.00;;;;;;;4.81;73.60;94928.50;5028925;28;20061;-79
2021/12/30 03:10:13;;;;;;;16.20;6.10;;;;;;;4.81;75.00;94932.97;5030777;28;20044;-79
2021/12/30 03:12:39;;;;;;;13.05;6.18;;;;;;;4.81;75.01;94936.47;5029048;28;20064;-80
2021/12/30 03:15:04;;;;;;;9.55;4.00;;;;;;;4.91;74.43;94941.69;5030744;28;20037;-80
2021/12/30 03:17:30;;;;;;;18.02;6.43;;;;;;;4.95;74.17;94939.53;5028870;28;20052;-81
2021/12/30 03:19:56;;;;;;;11.82;5.35;;;;;;;4.99;73.66;94954.22;5012748;28;20037;-79
2021/12/30 03:22:21;;;;;;;6.93;4.03;;;;;;;5.02;73.59;94945.09;5029577;28;20060;-80
2021/12/30 03:24:46;;;;;;;6.45;3.35;;;;;;;5.10;72.80;94946.97;5029324;28;20404;-81
2021/12/30 03:27:12;;;;;;;5.63;3.33;;;;;;;5.10;72.65;94955.78;5030029;28;20459;-82
2021/12/30 03:29:37;;;;;;;4.28;3.03;;;;;;;5.18;72.92;94949.69;5028527;28;20022;-81
2021/12/30 03:32:03;;;;;;;5.03;2.95;;;;;;;5.13;73.14;94946.66;5030615;28;20415;-80
2021/12/30 03:34:28;;;;;;;5.53;3.20;;;;;;;5.14;72.59;94951.81;5028184;28;20041;-81
2021/12/30 03:36:54;;;;;;;4.68;3.08;;;;;;;5.13;72.80;94952.81;5030212;28;20033;-80
2021/12/30 03:39:19;;;;;;;5.10;3.03;;;;;;;5.18;72.01;94952.34;5029261;28;20033;-81
2021/12/30 03:41:44;;;;;;;4.53;2.80;;;;;;;5.11;72.30;94959.28;5029846;28;20484;-79
2021/12/30 03:44:10;;;;;;;3.85;2.75;;;;;;;5.12;72.29;94960.94;5029620;28;20021;-80
2021/12/30 03:46:35;;;;;;;5.80;3.38;;;;;;;5.06;72.42;94957.91;5011069;28;20028;-80
2021/12/30 03:49:01;;;;;;;5.05;2.55;;;;;;;5.10;72.47;94962.91;5029802;28;20037;-80
2021/12/30 03:51:26;;;;;;;3.97;2.92;;;;;;;5.01;73.08;94960.22;5010259;28;20128;-79
2021/12/30 03:53:53;;;;;;;4.88;3.25;;;;;;;5.04;72.63;94959.91;5029919;28;20032;-79
2021/12/30 03:56:21;;;;;;;3.78;2.47;;;;;;;5.15;72.04;94960.63;5027854;28;20029;-78
2021/12/30 03:58:47;;;;;;;3.80;2.55;;;;;;;5.13;71.85;94973.22;5029418;28;20033;-80
2021/12/30 04:01:15;;;;;;;4.68;2.50;;;;;;;5.00;72.34;94974.47;5028451;28;20049;-80
2021/12/30 04:03:41;;;;;;;3.60;2.80;;;;;;;4.94;72.90;94983.06;5028970;28;20361;-78
2021/12/30 04:06:06;;;;;;;3.20;2.47;;;;;;;4.97;72.85;94984.56;5011570;28;20511;-80
2021/12/30 04:08:32;;;;;;;3.83;2.60;;;;;;;4.97;72.88;94980.09;5027615;28;20029;-80
2021/12/30 04:10:57;;;;;;;3.58;2.75;;;;;;;4.90;73.06;94982.53;5029043;28;20037;-80
2021/12/30 04:13:23;;;;;;;3.60;2.78;;;;;;;5.04;73.12;94989.16;5026718;28;20480;-79
2021/12/30 04:15:48;;;;;;;4.18;2.92;;;;;;;5.03;73.21;94991.97;5029314;28;20124;-79
2021/12/30 04:18:14;;;;;;;12.43;7.30;;;;;;;5.02;73.09;94993.78;5027873;28;20033;-79
2021/12/30 04:20:39;;;;;;;11.32;6.82;;;;;;;4.86;73.84;95002.44;5028940;28;20036;-79
2021/12/30 04:23:04;;;;;;;5.75;3.80;;;;;;;4.84;73.91;95015.03;5028587;28;20784;-80
2021/12/30 04:25:30;;;;;;;4.50;3.17;;;;;;;4.76;74.39;95015.78;5028281;28;20025;-79
2021/12/30 04:27:55;;;;;;;4.07;3.13;;;;;;;4.84;74.73;95023.00;5010844;28;20029;-80
2021/12/30 04:30:21;;;;;;;5.05;3.45;;;;;;;4.90;74.29;95019.72;5027480;28;20037;-80
2021/12/30 04:32:46;;;;;;;3.80;3.20;;;;;;;4.95;73.79;95035.22;5010953;28;20401;-80
2021/12/30 04:35:12;;;;;;;4.43;3.47;;;;;;;4.96;73.96;95042.22;5027160;28;20496;-80
2021/12/30 04:37:38;;;;;;;4.97;3.47;;;;;;;5.14;73.50;95036.06;5028633;28;20031;-79
2021/12/30 04:40:04;;;;;;;4.60;3.55;;;;;;;5.08;74.58;95034.84;5027518;28;20033;-79
2021/12/30 04:42:30;;;;;;;3.75;3.15;;;;;;;5.14;73.88;95036.06;5028242;28;20025;-80
2021/12/30 04:44:55;;;;;;;4.47;3.38;;;;;;;5.20;74.02;95038.13;5010523;28;20032;-80
2021/12/30 04:47:21;;;;;;;6.03;3.70;;;;;;;5.30;72.92;95041.50;5009609;28;20028;-80
2021/12/30 04:49:46;;;;;;;6.03;3.85;;;;;;;5.34;72.69;95043.88;5010933;28;20041;-80
2021/12/30 04:52:12;;;;;;;5.63;4.13;;;;;;;5.19;73.66;95044.44;5026839;28;20048;-80
2021/12/30 04:54:37;;;;;;;5.55;4.18;;;;;;;5.15;73.12;95048.38;5028665;28;20125;-80
2021/12/30 04:57:03;;;;;;;5.32;3.95;;;;;;;5.15;73.30;95061.66;5026766;28;20389;-80
2021/12/30 04:59:28;;;;;;;5.57;3.90;;;;;;;5.18;72.60;95066.66;5028637;28;20461;-79
2021/12/30 05:01:54;;;;;;;5.75;4.38;;;;;;;5.21;73.80;95071.69;5027603;28;20037;-80
2021/12/30 05:04:19;;;;;;;5.78;3.97;;;;;;;5.28;73.51;95071.91;5026820;28;20025;-80
2021/12/30 05:06:44;;;;;;;4.28;3.55;;;;;;;5.37;72.12;95073.66;5023813;28;20021;-79
2021/12/30 05:09:10;;;;;;;4.53;3.40;;;;;;;5.27;71.58;95086.22;5027113;28;20109;-81
2021/12/30 05:11:39;;;;;;;5.25;3.58;;;;;;;5.36;71.50;95089.75;5026016;28;20040;-81
2021/12/30 05:14:04;;;;;;;5.57;3.30;;;;;;;5.31;71.10;95091.06;5026046;28;20057;-80
2021/12/30 05:16:30;;;;;;;5.55;3.72;;;;;;;5.27;71.49;95087.03;5022132;28;20249;-80
2021/12/30 05:18:57;;;;;;;4.40;3.00;;;;;;;5.27;70.34;95084.34;5027175;28;20455;-80
2021/12/30 05:21:23;;;;;;;6.18;3.80;;;;;;;5.20;71.14;95085.97;5025162;28;20044;-80
2021/12/30 05:23:49;;;;;;;5.82;3.45;;;;;;;5.06;69.57;95098.78;5026400;28;20403;-80
2021/12/30 05:26:16;;;;;;;9.40;5.45;;;;;;;5.10;69.84;95102.00;5025765;28;20099;-80
2021/12/30 05:28:42;;;;;;;6.45;3.90;;;;;;;5.00;70.77;95109.22;5027172;28;20029;-79
2021/12/30 05:31:07;;;;;;;5.93;3.72;;;;;;;4.99;69.92;95112.84;5022661;28;20029;-79
2021/12/30 05:33:33;;;;;;;7.63;3.80;;;;;;;5.05;70.21;95106.91;5027125;28;20467;-80
2021/12/30 05:35:58;;;;;;;5.55;3.05;;;;;;;4.95;70.23;95109.63;5025257;28;21448;-81
2021/12/30 05:38:23;;;;;;;6.18;3.58;;;;;;;4.91;70.19;95118.91;5027555;28;20030;-79
2021/12/30 05:40:49;;;;;;;5.57;3.15;;;;;;;5.01;69.73;95114.38;5015906;28;20229;-79
2021/12/30 05:43:14;;;;;;;5.28;3.10;;;;;;;5.01;69.44;95125.00;5027262;28;20026;-79
2021/12/30 05:45:40;;;;;;;5.18;3.42;;;;;;;4.87;69.66;95134.31;5027333;28;20511;-82
2021/12/30 05:48:05;;;;;;;6.57;4.15;;;;;;;4.86;70.49;95132.66;5008915;28;20500;-79
2021/12/30 05:50:31;;;;;;;4.47;2.80;;;;;;;4.80;69.29;95133.25;5018266;28;20030;-81
2021/12/30 05:52:56;;;;;;;4.28;2.75;;;;;;;4.64;70.08;95134.69;5006171;28;20038;-80
2021/12/30 05:55:22;;;;;;;5.72;2.70;;;;;;;4.63;69.86;95140.16;5008371;28;20025;-78
2021/12/30 05:57:49;;;;;;;3.42;2.05;;;;;;;4.54;70.12;95145.41;5006740;28;20034;-80
2021/12/30 06:00:15;;;;;;;4.65;2.00;;;;;;;4.50;69.51;95144.00;5007230;28;20409;-79
2021/12/30 06:02:41;;;;;;;3.08;1.92;;;;;;;4.39;70.03;95146.84;5007163;28;20074;-79
2021/12/30 06:05:07;;;;;;;3.10;2.17;;;;;;;4.35;69.57;95151.63;5006620;28;20044;-79
2021/12/30 06:07:33;;;;;;;3.03;2.08;;;;;;;4.18;70.07;95156.69;5007345;28;20033;-79
2021/12/30 06:09:58;;;;;;;2.97;2.28;;;;;;;4.22;71.15;95170.53;5008930;28;20025;-79
2021/12/30 06:12:23;;;;;;;4.93;2.40;;;;;;;4.33;69.87;95172.16;5028438;28;20036;-79
2021/12/30 06:14:49;;;;;;;5.32;2.50;;;;;;;4.38;69.88;95175.22;5039885;28;20473;-78
2021/12/30 06:17:15;;;;;;;4.10;2.70;;;;;;;4.36;70.17;95181.66;5043304;28;20024;-77
2021/12/30 06:19:42;;;;;;;3.80;2.53;;;;;;;4.35;69.25;95191.47;5039020;28;20025;-79
2021/12/30 06:22:08;;;;;;;5.88;2.72;;;;;;;4.43;69.04;95190.72;5025717;28;20388;-78
2021/12/30 06:24:34;;;;;;;5.05;2.67;;;;;;;4.41;69.74;95196.19;5026933;28;20030;-80
2021/12/30 06:26:59;;;;;;;5.90;2.75;;;;;;;4.52;69.39;95208.44;5024013;28;20040;-79
2021/12/30 06:29:25;;;;;;;5.10;2.60;;;;;;;4.53;69.86;95215.41;5026552;28;20037;-79
2021/12/30 06:31:50;;;;;;;3.95;2.72;;;;;;;4.54;68.65;95216.28;5022637;28;20025;-81
2021/12/30 06:34:16;;;;;;;3.08;2.03;;;;;;;4.45;67.53;95225.94;5025576;28;20025;-79
2021/12/30 06:36:41;;;;;;;3.50;2.10;;;;;;;4.48;67.67;95227.47;5024970;28;20479;-80
2021/12/30 06:39:06;;;;;;;5.82;2.80;;;;;;;4.49;67.96;95232.63;5027412;28;20041;-77
2021/12/30 06:41:32;;;;;;;2.97;2.10;;;;;;;4.52;67.75;95231.50;4999939;28;20017;-79
2021/12/30 06:43:57;;;;;;;3.70;2.17;;;;;;;4.53;67.18;95234.00;5025937;28;20064;-84
2021/12/30 06:46:23;;;;;;;2.45;1.80;;;;;;;4.53;67.04;95241.97;5026137;28;20021;-79
2021/12/30 06:48:50;;;;;;;3.33;1.90;;;;;;;4.44;67.33;95245.50;5006275;28;20504;-78
2021/12/30 06:51:18;;;;;;;2.45;1.73;;;;;;;4.54;66.40;95246.34;5026284;28;20044;-78
2021/12/30 06:53:44;;;;;;;2.72;1.50;;;;;;;4.44;66.94;95250.81;5025042;28;20028;-77
2021/12/30 06:56:10;;;;;;;2.20;1.60;;;;;;;4.54;67.84;95256.97;5009048;28;20026;-77
2021/12/30 06:58:35;;;;;;;2.63;1.70;;;;;;;4.63;67.07;95265.03;5025010;28;20040;-78
2021/12/30 07:01:01;;;;;;;2.35;1.63;;;;;;;4.73;66.60;95270.31;5008588;28;20022;-77
2021/12/30 07:03:26;;;;;;;2.50;1.60;;;;;;;4.77;66.29;95271.72;5024487;28;20030;-78
2021/12/30 07:05:54;;;;;;;2.53;1.85;;;;;;;4.68;67.05;95273.41;5024539;28;20101;-75
2021/12/30 07:08:20;;;;;;;2.63;1.75;;;;;;;4.68;66.48;95279.56;5025221;28;20034;-77
2021/12/30 07:10:45;;;;;;;2.45;1.60;;;;;;;4.68;67.26;95287.53;5023619;28;20022;-78
2021/12/30 07:13:11;;;;;;;3.00;2.10;;;;;;;4.72;67.02;95289.91;5025396;28;20025;-76
2021/12/30 07:15:36;;;;;;;3.45;2.28;;;;;;;4.74;66.23;95303.88;5023957;28;20032;-77
2021/12/30 07:18:02;;;;;;;4.63;2.80;;;;;;;4.67;67.53;95300.97;5026644;28;20025;-77
2021/12/30 07:20:27;;;;;;;6.22;3.13;;;;;;;4.79;66.83;95306.94;5024869;28;20025;-77
2021/12/30 07:22:52;;;;;;;4.93;3.08;;;;;;;4.81;65.87;95319.09;5026120;28;20033;-77
2021/12/30 07:25:18;;;;;;;6.03;2.83;;;;;;;4.81;65.48;95321.75;5025915;28;20037;-77
2021/12/30 07:27:48;;;;;;;7.53;3.33;;;;;;;4.78;65.78;95324.72;5025131;28;20029;-77
2021/12/30 07:30:13;;;;;;;5.03;3.03;;;;;;;4.80;65.77;95322.72;5026297;28;20018;-77
2021/12/30 07:32:39;;;;;;;7.57;3.25;;;;;;;4.90;65.28;95322.72;5024623;28;20368;-77
2021/12/30 07:35:05;;;;;;;7.43;3.08;;;;;;;4.90;65.80;95335.19;5026621;28;20034;-77
2021/12/30 07:37:30;;;;;;;4.63;2.58;;;;;;;4.85;65.46;95329.44;5024693;28;20013;-77
2021/12/30 07:39:56;;;;;;;5.88;2.78;;;;;;;4.77;65.38;95336.31;5026166;28;20408;-77
2021/12/30 07:42:21;;;;;;;4.50;3.00;;;;;;;4.86;65.61;95342.59;5027606;28;20408;-77
2021/12/30 07:44:47;;;;;;;7.07;3.70;;;;;;;4.86;65.33;95349.72;5029012;28;20451;-77
2021/12/30 07:47:12;;;;;;;6.63;3.75;;;;;;;4.97;64.80;95352.22;5013493;28;20317;-77
2021/12/30 07:49:37;;;;;;;7.00;3.83;;;;;;;4.84;65.17;95355.19;5030337;28;20014;-77
2021/12/30 07:52:04;;;;;;;5.47;3.78;;;;;;;4.80;65.98;95361.78;5031959;28;20033;-76
2021/12/30 07:54:29;;;;;;;6.32;3.40;;;;;;;4.71;66.13;95363.44;5028756;28;20219;-77
2021/12/30 07:56:55;;;;;;;4.50;3.00;;;;;;;4.72;65.92;95358.97;5012530;28;20124;-78
2021/12/30 07:59:20;;;;;;;3.17;2.30;;;;;;;4.72;66.60;95361.63;5028902;28;20052;-77
2021/12/30 08:01:46;;;;;;;4.20;2.38;;;;;;;4.81;65.30;95369.59;5029076;28;20481;-79
2021/12/30 08:04:11;;;;;;;3.45;2.38;;;;;;;4.92;65.93;95375.72;5028994;28;20412;-76
2021/12/30 08:06:36;;;;;;;4.13;2.38;;;;;;;4.90;64.95;95370.53;5028628;28;20423;-76
2021/12/30 08:09:02;;;;;;;3.75;2.25;;;;;;;4.97;64.29;95380.59;5029383;28;20404;-76
2021/12/30 08:11:27;;;;;;;2.85;2.10;;;;;;;4.90;64.88;95373.19;5010300;28;20411;-78
2021/12/30 08:13:53;;;;;;;2.60;1.80;;;;;;;4.90;64.10;95372.38;5029327;28;20048;-77
2021/12/30 08:16:18;;;;;;;4.55;2.63;;;;;;;4.87;64.05;95383.31;5009712;28;20471;-76
2021/12/30 08:18:44;;;;;;;3.33;2.15;;;;;;;4.90;65.05;95398.97;5029264;28;20029;-78
2021/12/30 08:21:09;;;;;;;4.32;2.30;;;;;;;4.86;65.36;95392.25;5028155;28;20029;-77
2021/12/30 08:23:35;;;;;;;3.42;2.28;;;;;;;4.81;65.89;95398.84;5028718;28;20037;-76
2021/12/30 08:26:02;;;;;;;3.85;2.40;;;;;;;4.87;65.99;95407.22;5029167;28;20021;-77
2021/12/30 08:28:28;;;;;;;2.83;2.10;;;;;;;4.80;66.50;95410.41;5027830;28;20057;-76
2021/12/30 08:30:53;;;;;;;5.93;2.65;;;;;;;4.84;65.82;95418.97;5029148;28;20029;-77
2021/12/30 08:33:19;;;;;;;4.07;2.65;;;;;;;4.86;66.33;95426.78;5027391;28;20440;-79
2021/12/30 08:35:44;;;;;;;4.78;2.95;;;;;;;4.94;65.48;95427.78;5028555;28;20029;-76
2021/12/30 08:38:10;;;;;;;6.05;3.55;;;;;;;4.91;65.39;95427.22;5027584;28;20044;-76
2021/12/30 08:40:36;;;;;;;5.72;3.40;;;;;;;4.94;64.83;95425.13;5028826;28;20060;-77
2021/12/30 08:43:01;;;;;;;4.50;3.35;;;;;;;5.04;65.54;95434.88;5009954;28;20021;-76
2021/12/30 08:45:27;;;;;;;4.65;3.28;;;;;;;5.04;64.89;95434.88;5010223;28;20037;-77
2021/12/30 08:47:52;;;;;;;6.07;3.33;;;;;;;5.06;65.16;95436.41;5028313;28;20025;-77
2021/12/30 08:50:18;;;;;;;7.03;3.33;;;;;;;5.07;64.01;95443.44;5027326;28;20071;-78
2021/12/30 08:52:43;;;;;;;4.75;3.00;;;;;;;5.20;64.66;95439.63;5028542;28;20064;-77
2021/12/30 08:55:09;;;;;;;5.10;3.00;;;;;;;5.21;64.11;95443.94;5026905;28;20412;-77
2021/12/30 08:57:37;;;;;;;4.22;2.30;;;;;;;5.31;63.12;95450.09;5028498;28;20029;-77
2021/12/30 09:00:05;;;;;;;3.42;2.28;;;;;;;5.21;63.12;95449.25;5009268;28;20029;-77
2021/12/30 09:02:30;;;;;;;4.53;2.80;;;;;;;5.25;63.17;95455.13;5010285;28;20501;-78
2021/12/30 09:04:56;;;;;;;4.75;2.83;;;;;;;5.16;62.88;95454.16;4993258;28;20489;-78
2021/12/30 09:07:21;;;;;;;6.28;3.35;;;;;;;5.11;63.42;95454.59;5009679;28;20079;-78
2021/12/30 09:09:47;;;;;;;4.53;2.80;;;;;;;5.16;62.80;95446.19;4993814;28;20440;-77
2021/12/30 09:12:12;;;;;;;8.25;3.53;;;;;;;4.94;62.65;95454.34;5026837;28;20029;-77
2021/12/30 09:14:38;;;;;;;4.03;2.33;;;;;;;5.02;63.36;95450.97;5028035;28;20017;-76
2021/12/30 09:17:04;;;;;;;3.65;2.40;;;;;;;5.09;64.33;95453.06;5026319;28;20029;-77
2021/12/30 09:19:29;;;;;;;4.35;2.70;;;;;;;5.06;63.39;95463.00;5010331;28;20049;-80
2021/12/30 09:21:56;;;;;;;4.63;2.60;;;;;;;5.04;63.61;95470.28;5026211;28;20041;-77
2021/12/30 09:24:21;;;;;;;3.75;2.47;;;;;;;5.06;64.96;95460.34;5027758;28;20033;-77
2021/12/30 09:26:47;;;;;;;3.53;2.35;;;;;;;5.14;64.77;95469.44;5027508;28;20021;-76
2021/12/30 09:29:12;;;;;;;3.58;2.42;;;;;;;5.23;64.16;95467.72;5026403;28;20018;-78
2021/12/30 09:31:46;;;;;;;2.20;1.63;;;;;;;5.23;65.07;95459.75;5027879;28;20029;-78
2021/12/30 09:34:11;;;;;;;3.10;2.03;;;;;;;5.30;64.68;95464.34;5009104;28;20075;-76
2021/12/30 09:36:37;;;;;;;2.35;1.70;;;;;;;5.16;64.49;95467.47;5027762;28;20026;-78
2021/12/30 09:39:07;;;;;;;2.17;1.38;;;;;;;5.23;64.42;95468.56;5008305;28;20057;-78
2021/12/30 09:41:34;;;;;;;1.92;1.30;;;;;;;5.29;64.35;95475.97;5027421;28;20028;-78
2021/12/30 09:44:00;;;;;;;2.03;1.50;;;;;;;5.40;62.41;95474.16;5026635;28;20503;-76
2021/12/30 09:46:25;;;;;;;2.97;2.10;;;;;;;5.36;63.44;95472.75;5008625;28;20029;-75
2021/12/30 09:48:51;;;;;;;2.17;1.50;;;;;;;5.37;62.25;95471.78;5009899;28;20021;-78
2021/12/30 09:51:16;;;;;;;1.90;1.48;;;;;;;5.38;62.99;95478.78;5025731;28;20041;-77
2021/12/30 09:53:41;;;;;;;2.00;1.58;;;;;;;5.30;62.32;95484.81;5027459;28;20330;-77
2021/12/30 09:56:07;;;;;;;1.92;1.48;;;;;;;5.22;63.06;95476.69;5025911;28;20100;-77
2021/12/30 09:58:32;;;;;;;1.90;1.48;;;;;;;5.14;63.92;95490.72;5009671;28;20107;-76
2021/12/30 10:00:59;;;;;;;2.17;1.40;;;;;;;5.09;63.87;95495.59;5026187;28;20044;-75
2021/12/30 10:03:27;;;;;;;3.08;1.65;;;;;;;5.12;63.18;95484.69;5026523;28;20025;-77
2021/12/30 10:05:53;;;;;;;2.22;1.70;;;;;;;5.04;62.77;95491.56;5009663;28;20095;-77
2021/12/30 10:08:19;;;;;;;2.92;1.80;;;;;;;5.06;63.67;95491.41;5025627;28;20029;-76
2021/12/30 10:10:46;;;;;;;2.67;1.80;;;;;;;5.05;64.17;95489.72;5026434;28;20374;-76
2021/12/30 10:13:21;;;;;;;3.22;2.10;;;;;;;5.15;63.21;95481.75;5007387;28;20029;-76
2021/12/30 10:15:48;;;;;;;3.22;1.90;;;;;;;5.14;63.57;95485.41;5027285;28;20029;-77
2021/12/30 10:18:14;;;;;;;1.98;1.40;;;;;;;5.15;62.31;95479.94;5025676;28;20036;-77
2021/12/30 10:20:41;;;;;;;3.03;1.92;;;;;;;5.17;62.44;95479.78;5008844;28;20018;-77
2021/12/30 10:23:13;;;;;;;2.70;1.88;;;;;;;5.13;62.25;95484.53;5026263;28;20409;-77
2021/12/30 10:25:41;;;;;;;2.58;1.63;;;;;;;5.12;62.07;95493.50;5025628;28;20475;-76
2021/12/30 10:28:36;;;;;;;2.10;1.60;;;;;;;5.15;61.75;95489.72;5008862;28;20443;-77
2021/12/30 10:31:23;;;;;;;2.55;1.70;;;;;;;5.16;62.38;95499.38;4987430;28;20508;-77
2021/12/30 10:33:59;;;;;;;2.53;1.88;;;;;;;5.06;62.45;95500.22;5008381;28;20025;-76
2021/12/30 10:36:30;;;;;;;3.00;1.80;;;;;;;5.12;62.48;95503.28;5008979;28;20056;-77
2021/12/30 10:39:13;;;;;;;2.65;1.70;;;;;;;5.12;62.32;95500.63;5025110;28;20461;-77
2021/12/30 10:41:38;;;;;;;2.55;1.77;;;;;;;5.11;61.33;95504.28;5009234;28;20033;-77
2021/12/30 10:44:04;;;;;;;4.70;2.38;;;;;;;5.13;61.76;95494.31;5007769;28;20030;-77
2021/12/30 10:46:30;;;;;;;5.18;2.08;;;;;;;5.08;61.70;95497.41;4991880;28;20030;-76
2021/12/30 10:49:09;;;;;;;2.30;1.63;;;;;;;5.15;61.91;95487.06;5008180;28;20090;-78
2021/12/30 10:51:43;;;;;;;2.55;1.77;;;;;;;5.16;61.90;95483.41;5007551;28;20033;-77
2021/12/30 10:54:15;;;;;;;4.93;1.88;;;;;;;5.22;62.00;95493.50;5009414;28;20017;-77
2021/12/30 10:56:46;;;;;;;3.20;2.05;;;;;;;5.19;61.56;95493.78;5008143;28;20033;-77
2021/12/30 10:59:14;;;;;;;2.72;1.70;;;;;;;5.24;61.42;95501.34;5026631;28;20109;-77
2021/12/30 11:01:53;;;;;;;6.40;1.88;;;;;;;5.26;61.59;95499.34;5026142;28;21300;-78
2021/12/30 11:04:19;;;;;;;2.92;2.00;;;;;;;5.28;61.07;95506.22;5025926;28;20041;-77
2021/12/30 11:06:46;;;;;;;4.60;2.08;;;;;;;5.29;60.97;95499.91;5011673;28;20068;-78
2021/12/30 11:09:17;;;;;;;4.18;2.17;;;;;;;5.32;61.06;95504.09;5000445;28;20040;-77
2021/12/30 11:11:47;;;;;;;3.00;2.00;;;;;;;5.38;61.30;95513.34;5036995;28;20568;-76
2021/12/30 11:14:15;;;;;;;4.13;2.30;;;;;;;5.42;60.72;95517.38;5035786;28;20058;-78
2021/12/30 11:17:04;;;;;;;3.03;2.00;;;;;;;5.47;60.40;95519.63;5003203;28;20029;-77
2021/12/30 11:19:30;;;;;;;2.83;1.95;;;;;;;5.47;60.73;95536.44;5032576;28;20389;-78
2021/12/30 11:21:59;;;;;;;3.95;2.47;;;;;;;5.49;60.96;95537.13;5015169;28;20030;-76
2021/12/30 11:24:28;;;;;;;4.13;2.40;;;;;;;5.62;60.76;95534.16;5036473;28;20121;-77
2021/12/30 11:26:55;;;;;;;3.92;2.50;;;;;;;5.66;60.05;95540.03;5016071;28;20053;-78
2021/12/30 11:29:21;;;;;;;3.40;2.30;;;;;;;5.63;60.46;95535.00;5035139;28;20026;-77
2021/12/30 11:31:46;;;;;;;3.97;2.30;;;;;;;5.76;58.97;95532.88;4999279;28;20502;-78
2021/12/30 11:34:12;;;;;;;4.82;2.47;;;;;;;5.77;58.95;95534.53;5017107;28;20535;-77
2021/12/30 11:36:37;;;;;;;4.00;2.50;;;;;;;5.74;59.99;95534.81;5035156;28;20029;-77
2021/12/30 11:39:10;;;;;;;4.15;2.72;;;;;;;5.78;59.68;95540.69;5031434;28;20017;-78